Anstruther, United Kingdom
Current Conditions -  °F | °C
As of 4:50 AM on Wednesday 26 Nov 2014 (Local Time) from EGQL Reporting Station
Haze Haze  
Wind Chill: 34°   Ceiling: 7000
Heat Index: 34°   Visibility: 1.3mi
Dew Point: 34°   Wind: 2mph
Humidity: 100%   Direction: 310°NW
Pressure: 30.03"   Gusts: NA
Location:  56.22°N, 2.7°W
Report Text: EGQL 260450Z 31002KT 2200 BR BKN070 01/01 Q1017 YLO2
Loading
Personal Weather Stations






























Interactive Weather Map New forecast layout! Learn more

10-Day Weather Forecast

Advertisements
Track Severe Weather on mobile